createdAt,value
2023-05-02T00:02:53.231Z,100212.25
2023-05-02T00:07:55.183Z,100209.50
2023-05-02T00:12:56.646Z,100212.50
2023-05-02T00:17:58.123Z,100201.38
2023-05-02T00:22:59.597Z,100215.84
2023-05-02T00:28:01.011Z,100203.91
2023-05-02T00:33:02.480Z,100212.50
2023-05-02T00:38:03.857Z,100222.22
2023-05-02T00:43:05.127Z,100211.28
2023-05-02T00:48:08.806Z,100221.34
2023-05-02T00:53:10.813Z,100213.47
2023-05-02T00:58:16.428Z,100212.75
2023-05-02T01:03:31.166Z,100223.81
2023-05-02T01:08:40.173Z,100222.75
2023-05-02T01:13:43.277Z,100229.56
2023-05-02T01:18:47.118Z,100237.56
2023-05-02T01:24:06.762Z,100239.16
2023-05-02T01:29:10.186Z,100232.00
2023-05-02T01:34:12.871Z,100243.25
2023-05-02T01:39:27.215Z,100239.97
2023-05-02T01:44:29.439Z,100258.59
2023-05-02T01:49:34.123Z,100270.47
2023-05-02T01:54:36.551Z,100267.94
2023-05-02T01:59:40.902Z,100265.09
2023-05-02T02:04:43.092Z,100274.13
2023-05-02T02:09:44.557Z,100281.00
2023-05-02T02:14:50.907Z,100278.75
2023-05-02T02:19:56.091Z,100284.41
2023-05-02T02:24:59.200Z,100280.38
2023-05-02T02:30:00.909Z,100299.44
2023-05-02T02:35:04.408Z,100296.22
2023-05-02T02:40:19.011Z,100305.47
2023-05-02T02:45:23.256Z,100308.53
2023-05-02T02:50:31.275Z,100312.22
2023-05-02T02:55:54.053Z,100311.50
2023-05-02T03:00:56.163Z,100309.72
2023-05-02T03:05:58.027Z,100310.75
2023-05-02T03:10:59.347Z,100319.22
2023-05-02T03:16:32.056Z,100324.41
2023-05-02T03:21:34.416Z,100331.09
2023-05-02T03:26:35.973Z,100339.81
2023-05-02T03:31:37.430Z,100354.75
2023-05-02T03:36:38.774Z,100354.63
2023-05-02T03:41:40.136Z,100359.81
2023-05-02T03:46:41.744Z,100359.97
2023-05-02T03:51:43.599Z,100379.41
2023-05-02T03:56:44.901Z,100372.44
2023-05-02T04:01:50.407Z,100380.31
2023-05-02T04:06:51.940Z,100396.09
2023-05-02T04:11:53.850Z,100389.47
2023-05-02T04:16:55.309Z,100397.28
2023-05-02T04:21:56.632Z,100401.25
2023-05-02T04:26:58.007Z,100407.88
2023-05-02T04:31:59.360Z,100421.69
2023-05-02T04:37:01.706Z,100437.47
2023-05-02T04:42:03.944Z,100448.88
2023-05-02T04:47:05.403Z,100462.41
2023-05-02T04:52:06.785Z,100463.28
2023-05-02T04:57:10.014Z,100473.00
2023-05-02T05:02:12.829Z,100486.69
2023-05-02T05:07:14.302Z,100487.81
2023-05-02T05:12:15.651Z,100492.19
2023-05-02T05:17:17.192Z,100505.28
2023-05-02T05:22:20.303Z,100508.41
2023-05-02T05:27:22.018Z,100518.59
2023-05-02T05:32:24.249Z,100530.41
2023-05-02T05:37:25.698Z,100533.50
2023-05-02T05:42:27.174Z,100542.13
2023-05-02T05:47:28.967Z,100553.50
2023-05-02T05:52:30.630Z,100573.28
2023-05-02T05:57:31.993Z,100577.78
2023-05-02T06:02:33.449Z,100566.22
2023-05-02T06:07:34.884Z,100572.28
2023-05-02T06:12:36.445Z,100586.13
2023-05-02T06:17:37.737Z,100582.81
2023-05-02T06:22:40.446Z,100577.59
2023-05-02T06:27:42.559Z,100587.63
2023-05-02T06:32:44.162Z,100607.53
2023-05-02T06:37:45.620Z,100616.97
2023-05-02T06:42:47.199Z,100628.00
2023-05-02T06:47:48.598Z,100621.34
2023-05-02T06:52:49.950Z,100626.25
2023-05-02T06:57:52.230Z,100634.44
2023-05-02T07:02:54.747Z,100637.25
2023-05-02T07:07:56.054Z,100639.19
2023-05-02T07:12:57.533Z,100647.75
2023-05-02T07:17:59.246Z,100647.59
2023-05-02T07:23:00.685Z,100655.22
2023-05-02T07:28:02.138Z,100666.25
2023-05-02T07:33:03.738Z,100667.81
2023-05-02T07:38:05.132Z,100673.84
2023-05-02T07:43:07.483Z,100677.97
2023-05-02T07:48:09.672Z,100678.09
2023-05-02T07:53:11.719Z,100675.88
2023-05-02T07:58:13.094Z,100687.59
2023-05-02T08:03:14.644Z,100699.16
2023-05-02T08:08:16.431Z,100699.47
2023-05-02T08:13:18.069Z,100706.69
2023-05-02T08:18:19.384Z,100705.81
2023-05-02T08:23:21.054Z,100712.63
2023-05-02T08:28:23.320Z,100708.34
2023-05-02T08:33:24.670Z,100720.19
2023-05-02T08:38:26.588Z,100726.78
2023-05-02T08:43:29.461Z,100726.91
2023-05-02T08:48:32.445Z,100743.88
2023-05-02T08:53:37.344Z,100743.47
2023-05-02T08:58:40.219Z,100747.63
2023-05-02T09:03:44.564Z,100755.09
2023-05-02T09:08:50.721Z,100761.56
2023-05-02T09:13:52.568Z,100768.47
2023-05-02T09:18:58.901Z,100777.91
2023-05-02T09:24:00.429Z,100774.91
2023-05-02T09:29:04.094Z,100784.41
2023-05-02T09:34:13.925Z,100770.94
2023-05-02T09:39:17.472Z,100774.53
2023-05-02T09:44:21.785Z,100773.97
2023-05-02T09:49:40.833Z,100774.91
2023-05-02T09:54:42.406Z,100776.34
2023-05-02T09:59:57.114Z,100775.03
2023-05-02T10:05:01.726Z,100780.06
2023-05-02T10:10:03.624Z,100768.34
2023-05-02T10:15:07.979Z,100771.22
2023-05-02T10:20:16.278Z,100780.91
2023-05-02T10:25:18.355Z,100781.09
2023-05-02T10:30:20.222Z,100778.66
2023-05-02T10:35:24.256Z,100770.91
2023-05-02T10:40:26.227Z,100757.78
2023-05-02T10:45:35.304Z,100766.72
2023-05-02T10:50:47.893Z,100766.56
2023-05-02T10:56:11.541Z,100767.22
2023-05-02T11:01:26.302Z,100761.66
2023-05-02T11:06:34.063Z,100732.94
2023-05-02T11:11:43.603Z,100727.38
2023-05-02T11:17:11.552Z,100740.06
2023-05-02T11:22:23.912Z,100736.63
2023-05-02T11:27:31.201Z,100734.75
2023-05-02T11:32:45.321Z,100731.09
2023-05-02T11:37:59.979Z,100731.09
2023-05-02T11:43:11.838Z,100715.84
2023-05-02T11:48:16.398Z,100718.50
2023-05-02T11:53:29.317Z,100726.28
2023-05-02T11:58:33.278Z,100720.53
2023-05-02T12:03:35.171Z,100729.81
2023-05-02T12:08:37.303Z,100737.63
2023-05-02T12:13:48.874Z,100739.00
2023-05-02T12:18:50.673Z,100744.53
2023-05-02T12:23:52.833Z,100746.16
2023-05-02T12:28:55.171Z,100750.38
2023-05-02T12:33:57.999Z,100754.09
2023-05-02T12:39:00.438Z,100755.13
2023-05-02T12:44:02.114Z,100748.34
2023-05-02T12:49:12.367Z,100754.34
2023-05-02T12:54:20.826Z,100755.56
2023-05-02T12:59:29.991Z,100754.56
2023-05-02T13:04:39.583Z,100772.25
2023-05-02T13:09:41.209Z,100769.63
2023-05-02T13:14:42.633Z,100772.56
2023-05-02T13:19:50.400Z,100783.03
2023-05-02T13:24:55.817Z,100783.50
2023-05-02T13:29:57.384Z,100782.56
2023-05-02T13:34:59.107Z,100783.81
2023-05-02T13:40:00.873Z,100777.19
2023-05-02T13:45:06.405Z,100780.41
2023-05-02T13:50:08.494Z,100785.88
2023-05-02T13:55:10.121Z,100785.19
2023-05-02T14:00:12.020Z,100773.97
2023-05-02T14:05:13.516Z,100776.00
2023-05-02T14:10:14.948Z,100793.22
2023-05-02T14:15:16.667Z,100779.56
2023-05-02T14:20:18.060Z,100780.75
2023-05-02T14:25:20.468Z,100779.41
2023-05-02T14:30:21.767Z,100775.34
2023-05-02T14:35:23.562Z,100779.06
2023-05-02T14:40:24.841Z,100783.47
2023-05-02T14:45:26.616Z,100786.50
2023-05-02T14:50:27.994Z,100794.59
2023-05-02T14:55:29.301Z,100798.47
2023-05-02T15:00:30.653Z,100810.81
2023-05-02T15:05:32.460Z,100801.53
2023-05-02T15:10:39.982Z,100815.63
2023-05-02T15:15:41.379Z,100814.59
2023-05-02T15:20:44.429Z,100820.13
2023-05-02T15:25:46.285Z,100824.34
2023-05-02T15:30:49.285Z,100833.75
2023-05-02T15:35:55.753Z,100835.78
2023-05-02T15:40:59.282Z,100844.03
2023-05-02T15:46:00.820Z,100841.63
2023-05-02T15:51:03.014Z,100851.06
2023-05-02T15:56:07.965Z,100842.31
2023-05-02T16:01:09.718Z,100854.56
2023-05-02T16:06:11.226Z,100856.75
2023-05-02T16:11:12.601Z,100858.28
2023-05-02T16:16:13.944Z,100865.59
2023-05-02T16:21:15.548Z,100869.72
2023-05-02T16:26:16.999Z,100866.03
2023-05-02T16:31:18.356Z,100867.25
2023-05-02T16:36:19.740Z,100866.72
2023-05-02T16:41:21.393Z,100866.81
2023-05-02T16:46:22.841Z,100867.66
2023-05-02T16:51:24.165Z,100882.38
2023-05-02T16:56:25.496Z,100879.38
2023-05-02T17:01:27.204Z,100875.28
2023-05-02T17:06:28.579Z,100873.91
2023-05-02T17:11:29.995Z,100890.38
2023-05-02T17:16:31.385Z,100895.69
2023-05-02T17:21:33.724Z,100899.53
2023-05-02T17:26:35.455Z,100906.50
2023-05-02T17:31:37.829Z,100919.03
2023-05-02T17:36:42.165Z,100919.94
2023-05-02T17:41:43.569Z,100922.41
2023-05-02T17:46:44.940Z,100937.53
2023-05-02T17:51:46.575Z,100935.13
2023-05-02T17:56:47.973Z,100937.03
2023-05-02T18:01:52.796Z,100951.50
2023-05-02T18:06:54.594Z,100959.03
2023-05-02T18:11:58.301Z,100964.72
2023-05-02T18:16:59.632Z,100955.81
2023-05-02T18:22:01.106Z,100969.34
2023-05-02T18:27:03.166Z,100976.94
2023-05-02T18:32:04.603Z,100984.00
2023-05-02T18:37:06.840Z,100984.81
2023-05-02T18:42:08.300Z,101000.06
2023-05-02T18:47:09.766Z,100995.63
2023-05-02T18:52:11.877Z,101003.34
2023-05-02T18:57:13.272Z,101019.41
2023-05-02T19:02:15.627Z,101025.59
2023-05-02T19:07:16.929Z,101035.28
2023-05-02T19:12:18.344Z,101045.47
2023-05-02T19:17:19.878Z,101057.75
2023-05-02T19:22:22.194Z,101062.16
2023-05-02T19:27:23.695Z,101075.59
2023-05-02T19:32:25.303Z,101086.25
2023-05-02T19:37:29.597Z,101084.44
2023-05-02T19:42:30.828Z,101098.97
2023-05-02T19:47:32.649Z,101099.09
2023-05-02T19:52:34.378Z,101113.81
2023-05-02T19:57:36.244Z,101115.69
2023-05-02T20:02:37.698Z,101116.63
2023-05-02T20:07:39.741Z,101123.69
2023-05-02T20:12:44.847Z,101119.06
2023-05-02T20:17:47.485Z,101130.78
2023-05-02T20:22:48.860Z,101128.91
2023-05-02T20:27:50.901Z,101134.09
2023-05-02T20:32:52.594Z,101146.00
2023-05-02T20:37:54.104Z,101155.00
2023-05-02T20:42:55.483Z,101160.56
2023-05-02T20:47:56.891Z,101159.34
2023-05-02T20:52:58.225Z,101166.88
2023-05-02T20:57:59.511Z,101163.66
2023-05-02T21:03:00.998Z,101162.00
2023-05-02T21:08:02.424Z,101173.81
2023-05-02T21:13:03.754Z,101182.53
2023-05-02T21:18:05.863Z,101183.94
2023-05-02T21:23:11.023Z,101179.06
2023-05-02T21:28:12.619Z,101179.63
2023-05-02T21:33:17.363Z,101184.03
2023-05-02T21:38:18.672Z,101188.44
2023-05-02T21:43:20.023Z,101180.34
2023-05-02T21:48:21.596Z,101198.50
2023-05-02T21:53:23.765Z,101191.19
2023-05-02T21:58:25.251Z,101204.84
2023-05-02T22:03:27.622Z,101192.03
2023-05-02T22:08:29.009Z,101204.41
2023-05-02T22:13:30.358Z,101184.03
2023-05-02T22:18:31.684Z,101192.91
2023-05-02T22:23:32.986Z,101201.03
2023-05-02T22:28:35.170Z,101201.25
2023-05-02T22:33:37.156Z,101205.72
2023-05-02T22:38:41.472Z,101202.94
2023-05-02T22:43:42.796Z,101198.03
2023-05-02T22:48:44.138Z,101193.13
2023-05-02T22:53:45.663Z,101207.81
2023-05-02T22:58:49.703Z,101221.34
2023-05-02T23:03:51.783Z,101220.81
2023-05-02T23:08:53.230Z,101221.13
2023-05-02T23:13:54.537Z,101232.75
2023-05-02T23:18:55.960Z,101216.41
2023-05-02T23:23:57.306Z,101228.34
2023-05-02T23:28:58.662Z,101215.41
2023-05-02T23:34:00.542Z,101217.13
2023-05-02T23:39:02.483Z,101218.53
2023-05-02T23:44:04.666Z,101230.34
2023-05-02T23:49:05.995Z,101232.28
2023-05-02T23:54:07.282Z,101228.28
2023-05-02T23:59:08.728Z,101233.13
